sensor_id;sensor_type;location;lat;lon;timestamp;pressure;altitude;pressure_sealevel;temperature;humidity
77869;BME280;67231;59.144;37.934;2023-04-01T00:01:00;99061.19;;;-1.81;69.85
77869;BME280;67231;59.144;37.934;2023-04-01T00:03:29;99053.41;;;-1.81;69.72
77869;BME280;67231;59.144;37.934;2023-04-01T00:05:58;99051.56;;;-1.79;69.65
77869;BME280;67231;59.144;37.934;2023-04-01T00:08:25;99052.28;;;-1.77;69.67
77869;BME280;67231;59.144;37.934;2023-04-01T00:10:52;99052.28;;;-1.77;69.43
77869;BME280;67231;59.144;37.934;2023-04-01T00:13:19;99062.69;;;-1.77;69.44
77869;BME280;67231;59.144;37.934;2023-04-01T00:15:47;99056.00;;;-1.81;68.98
77869;BME280;67231;59.144;37.934;2023-04-01T00:18:14;99054.53;;;-1.86;69.49
77869;BME280;67231;59.144;37.934;2023-04-01T00:20:45;99050.25;;;-1.87;68.91
77869;BME280;67231;59.144;37.934;2023-04-01T00:23:13;99059.13;;;-1.89;69.10
77869;BME280;67231;59.144;37.934;2023-04-01T00:25:40;99048.91;;;-1.92;69.39
77869;BME280;67231;59.144;37.934;2023-04-01T00:28:06;99056.03;;;-1.96;69.01
77869;BME280;67231;59.144;37.934;2023-04-01T00:30:32;99048.47;;;-1.99;69.48
77869;BME280;67231;59.144;37.934;2023-04-01T00:32:59;99053.84;;;-2.02;69.37
77869;BME280;67231;59.144;37.934;2023-04-01T00:35:25;99049.75;;;-2.06;69.46
77869;BME280;67231;59.144;37.934;2023-04-01T00:37:51;99047.34;;;-2.09;69.24
77869;BME280;67231;59.144;37.934;2023-04-01T00:40:29;99044.03;;;-2.11;69.53
77869;BME280;67231;59.144;37.934;2023-04-01T00:42:55;99039.84;;;-2.14;69.70
77869;BME280;67231;59.144;37.934;2023-04-01T00:45:37;99039.13;;;-2.16;69.53
77869;BME280;67231;59.144;37.934;2023-04-01T00:48:09;99035.69;;;-2.16;69.51
77869;BME280;67231;59.144;37.934;2023-04-01T00:50:36;99032.34;;;-2.18;69.38
77869;BME280;67231;59.144;37.934;2023-04-01T00:53:05;99039.22;;;-2.17;69.35
77869;BME280;67231;59.144;37.934;2023-04-01T00:55:35;99036.59;;;-2.17;69.78
77869;BME280;67231;59.144;37.934;2023-04-01T00:58:05;99040.13;;;-2.18;69.64
77869;BME280;67231;59.144;37.934;2023-04-01T01:00:34;99036.78;;;-2.21;69.83
77869;BME280;67231;59.144;37.934;2023-04-01T01:03:00;99040.22;;;-2.20;69.78
77869;BME280;67231;59.144;37.934;2023-04-01T01:11:32;99038.19;;;-2.15;69.76
77869;BME280;67231;59.144;37.934;2023-04-01T01:16:53;99054.88;;;-2.19;69.52
77869;BME280;67231;59.144;37.934;2023-04-01T01:22:35;99053.31;;;-2.22;70.10
77869;BME280;67231;59.144;37.934;2023-04-01T01:28:41;99060.38;;;-2.24;69.84
77869;BME280;67231;59.144;37.934;2023-04-01T01:31:24;99055.25;;;-2.25;69.71
77869;BME280;67231;59.144;37.934;2023-04-01T01:34:19;99056.50;;;-2.31;69.90
77869;BME280;67231;59.144;37.934;2023-04-01T01:36:53;99055.00;;;-2.35;69.65
77869;BME280;67231;59.144;37.934;2023-04-01T01:39:20;99049.25;;;-2.40;69.83
77869;BME280;67231;59.144;37.934;2023-04-01T01:41:53;99057.97;;;-2.41;69.71
77869;BME280;67231;59.144;37.934;2023-04-01T01:44:21;99044.25;;;-2.43;70.00
77869;BME280;67231;59.144;37.934;2023-04-01T01:46:49;99045.25;;;-2.46;70.14
77869;BME280;67231;59.144;37.934;2023-04-01T01:49:17;99051.59;;;-2.50;70.29
77869;BME280;67231;59.144;37.934;2023-04-01T01:51:46;99043.97;;;-2.53;70.05
77869;BME280;67231;59.144;37.934;2023-04-01T01:54:15;99046.66;;;-2.54;70.55
77869;BME280;67231;59.144;37.934;2023-04-01T01:56:45;99047.69;;;-2.57;70.63
77869;BME280;67231;59.144;37.934;2023-04-01T01:59:14;99046.03;;;-2.58;70.75
77869;BME280;67231;59.144;37.934;2023-04-01T02:01:44;99047.78;;;-2.59;70.67
77869;BME280;67231;59.144;37.934;2023-04-01T02:04:14;99045.34;;;-2.62;70.73
77869;BME280;67231;59.144;37.934;2023-04-01T02:06:46;99042.75;;;-2.62;70.56
77869;BME280;67231;59.144;37.934;2023-04-01T02:09:14;99041.94;;;-2.62;70.32
77869;BME280;67231;59.144;37.934;2023-04-01T02:12:12;99048.91;;;-2.63;70.63
77869;BME280;67231;59.144;37.934;2023-04-01T02:14:46;99040.16;;;-2.62;70.61
77869;BME280;67231;59.144;37.934;2023-04-01T02:17:17;99043.72;;;-2.63;70.65
77869;BME280;67231;59.144;37.934;2023-04-01T02:19:48;99040.38;;;-2.65;70.79
77869;BME280;67231;59.144;37.934;2023-04-01T02:22:35;99037.00;;;-2.67;70.71
77869;BME280;67231;59.144;37.934;2023-04-01T02:25:07;99031.28;;;-2.72;70.18
77869;BME280;67231;59.144;37.934;2023-04-01T02:27:34;99048.72;;;-2.74;70.94
77869;BME280;67231;59.144;37.934;2023-04-01T02:30:00;99048.81;;;-2.76;70.79
77869;BME280;67231;59.144;37.934;2023-04-01T02:32:27;99038.69;;;-2.80;71.04
77869;BME280;67231;59.144;37.934;2023-04-01T02:34:55;99035.38;;;-2.82;71.18
77869;BME280;67231;59.144;37.934;2023-04-01T02:37:22;99034.50;;;-2.83;70.94
77869;BME280;67231;59.144;37.934;2023-04-01T02:39:49;99038.97;;;-2.85;71.13
77869;BME280;67231;59.144;37.934;2023-04-01T02:42:15;99034.59;;;-2.84;71.39
77869;BME280;67231;59.144;37.934;2023-04-01T02:44:41;99035.53;;;-2.85;71.13
77869;BME280;67231;59.144;37.934;2023-04-01T02:47:07;99047.75;;;-2.87;71.05
77869;BME280;67231;59.144;37.934;2023-04-01T02:49:34;99038.31;;;-2.88;71.19
77869;BME280;67231;59.144;37.934;2023-04-01T02:52:00;99041.75;;;-2.88;71.39
77869;BME280;67231;59.144;37.934;2023-04-01T02:54:26;99053.88;;;-2.88;71.37
77869;BME280;67231;59.144;37.934;2023-04-01T02:56:52;99053.88;;;-2.88;71.41
77869;BME280;67231;59.144;37.934;2023-04-01T02:59:18;99039.97;;;-2.87;71.42
77869;BME280;67231;59.144;37.934;2023-04-01T03:01:44;99043.25;;;-2.84;71.33
77869;BME280;67231;59.144;37.934;2023-04-01T03:04:11;99046.56;;;-2.82;71.21
77869;BME280;67231;59.144;37.934;2023-04-01T03:06:37;99050.75;;;-2.79;70.85
77869;BME280;67231;59.144;37.934;2023-04-01T03:09:03;99049.63;;;-2.75;71.31
77869;BME280;67231;59.144;37.934;2023-04-01T03:11:29;99045.94;;;-2.71;71.41
77869;BME280;67231;59.144;37.934;2023-04-01T03:13:55;99048.16;;;-2.65;71.05
77869;BME280;67231;59.144;37.934;2023-04-01T03:16:22;99041.03;;;-2.61;71.00
77869;BME280;67231;59.144;37.934;2023-04-01T03:18:49;99046.66;;;-2.54;71.06
77869;BME280;67231;59.144;37.934;2023-04-01T03:21:20;99041.09;;;-2.48;70.99
77869;BME280;67231;59.144;37.934;2023-04-01T03:23:46;99041.56;;;-2.42;70.72
77869;BME280;67231;59.144;37.934;2023-04-01T03:26:13;99037.00;;;-2.38;70.53
77869;BME280;67231;59.144;37.934;2023-04-01T03:28:39;99042.75;;;-2.33;70.59
77869;BME280;67231;59.144;37.934;2023-04-01T03:31:05;99037.06;;;-2.25;70.18
77869;BME280;67231;59.144;37.934;2023-04-01T03:33:39;99040.97;;;-2.18;70.29
77869;BME280;67231;59.144;37.934;2023-04-01T03:36:06;99044.75;;;-2.09;70.28
77869;BME280;67231;59.144;37.934;2023-04-01T03:38:36;99043.25;;;-1.99;69.68
77869;BME280;67231;59.144;37.934;2023-04-01T03:41:02;99036.72;;;-1.92;69.94
77869;BME280;67231;59.144;37.934;2023-04-01T03:43:29;99041.25;;;-1.81;69.71
77869;BME280;67231;59.144;37.934;2023-04-01T03:45:56;99046.59;;;-1.70;69.77
77869;BME280;67231;59.144;37.934;2023-04-01T03:48:24;99046.75;;;-1.58;69.58
77869;BME280;67231;59.144;37.934;2023-04-01T03:50:51;99048.00;;;-1.51;69.15
77869;BME280;67231;59.144;37.934;2023-04-01T03:53:17;99039.59;;;-1.42;69.11
77869;BME280;67231;59.144;37.934;2023-04-01T03:55:46;99039.31;;;-1.37;68.98
77869;BME280;67231;59.144;37.934;2023-04-01T03:58:12;99041.22;;;-1.26;68.41
77869;BME280;67231;59.144;37.934;2023-04-01T04:00:39;99043.41;;;-1.20;68.27
77869;BME280;67231;59.144;37.934;2023-04-01T04:03:06;99054.97;;;-1.12;68.26
77869;BME280;67231;59.144;37.934;2023-04-01T04:05:34;99041.25;;;-1.01;68.30
77869;BME280;67231;59.144;37.934;2023-04-01T04:08:01;99054.28;;;-0.88;67.88
77869;BME280;67231;59.144;37.934;2023-04-01T04:10:28;99059.16;;;-0.83;68.09
77869;BME280;67231;59.144;37.934;2023-04-01T04:12:55;99053.75;;;-0.80;68.14
77869;BME280;67231;59.144;37.934;2023-04-01T04:15:24;99053.75;;;-0.67;68.16
77869;BME280;67231;59.144;37.934;2023-04-01T04:17:50;99064.78;;;-0.51;67.71
77869;BME280;67231;59.144;37.934;2023-04-01T04:20:17;99053.81;;;-0.30;67.13
77869;BME280;67231;59.144;37.934;2023-04-01T04:22:44;99059.19;;;-0.08;66.58
77869;BME280;67231;59.144;37.934;2023-04-01T04:25:10;99057.66;;;0.14;66.55
77869;BME280;67231;59.144;37.934;2023-04-01T04:27:38;99059.19;;;1.00;65.50
77869;BME280;67231;59.144;37.934;2023-04-01T04:30:10;99058.97;;;2.60;61.55
77869;BME280;67231;59.144;37.934;2023-04-01T04:32:37;99061.97;;;3.71;59.62
77869;BME280;67231;59.144;37.934;2023-04-01T04:35:04;99055.44;;;4.56;58.12
77869;BME280;67231;59.144;37.934;2023-04-01T04:37:32;99062.94;;;5.37;57.31
77869;BME280;67231;59.144;37.934;2023-04-01T04:39:59;99069.31;;;6.10;55.09
77869;BME280;67231;59.144;37.934;2023-04-01T04:42:25;99065.59;;;6.30;55.63
77869;BME280;67231;59.144;37.934;2023-04-01T04:44:56;99068.59;;;6.63;54.94
77869;BME280;67231;59.144;37.934;2023-04-01T04:47:23;99076.28;;;6.56;54.70
77869;BME280;67231;59.144;37.934;2023-04-01T04:49:49;99077.78;;;6.95;53.44
77869;BME280;67231;59.144;37.934;2023-04-01T04:52:15;99084.00;;;7.64;52.83
77869;BME280;67231;59.144;37.934;2023-04-01T04:54:42;99080.06;;;8.46;51.51
77869;BME280;67231;59.144;37.934;2023-04-01T04:57:08;99084.06;;;9.40;49.62
77869;BME280;67231;59.144;37.934;2023-04-01T04:59:41;99087.41;;;9.98;48.01
77869;BME280;67231;59.144;37.934;2023-04-01T05:02:14;99081.31;;;10.29;47.21
77869;BME280;67231;59.144;37.934;2023-04-01T05:04:41;99090.53;;;10.73;46.97
77869;BME280;67231;59.144;37.934;2023-04-01T05:07:12;99089.94;;;11.09;45.86
77869;BME280;67231;59.144;37.934;2023-04-01T05:09:38;99096.38;;;11.53;44.21
77869;BME280;67231;59.144;37.934;2023-04-01T05:12:05;99091.31;;;11.73;43.72
77869;BME280;67231;59.144;37.934;2023-04-01T05:14:51;99099.56;;;11.48;44.26
77869;BME280;67231;59.144;37.934;2023-04-01T05:17:17;99100.88;;;11.67;43.23
77869;BME280;67231;59.144;37.934;2023-04-01T05:19:43;99107.00;;;11.82;42.36
77869;BME280;67231;59.144;37.934;2023-04-01T05:22:10;99098.75;;;11.62;42.54
77869;BME280;67231;59.144;37.934;2023-04-01T05:24:37;99103.97;;;11.85;41.52
77869;BME280;67231;59.144;37.934;2023-04-01T05:27:03;99107.59;;;12.08;41.14
77869;BME280;67231;59.144;37.934;2023-04-01T05:29:30;99108.81;;;12.42;40.55
77869;BME280;67231;59.144;37.934;2023-04-01T05:32:04;99103.38;;;12.50;40.24
77869;BME280;67231;59.144;37.934;2023-04-01T05:34:30;99095.75;;;13.05;39.85
77869;BME280;67231;59.144;37.934;2023-04-01T05:36:56;99098.22;;;13.84;38.89
77869;BME280;67231;59.144;37.934;2023-04-01T05:39:23;99090.00;;;14.21;38.69
77869;BME280;67231;59.144;37.934;2023-04-01T05:41:50;99095.53;;;14.74;37.86
77869;BME280;67231;59.144;37.934;2023-04-01T05:44:16;99099.31;;;15.20;36.88
77869;BME280;67231;59.144;37.934;2023-04-01T05:47:03;99102.78;;;15.68;35.74
77869;BME280;67231;59.144;37.934;2023-04-01T05:49:31;99096.00;;;15.72;35.77
77869;BME280;67231;59.144;37.934;2023-04-01T05:51:57;99102.56;;;15.69;35.78
77869;BME280;67231;59.144;37.934;2023-04-01T05:54:23;99108.28;;;15.99;34.72
77869;BME280;67231;59.144;37.934;2023-04-01T05:56:49;99104.19;;;16.04;34.38
77869;BME280;67231;59.144;37.934;2023-04-01T05:59:17;99105.88;;;15.51;34.36
77869;BME280;67231;59.144;37.934;2023-04-01T06:01:44;99106.72;;;15.32;34.62
77869;BME280;67231;59.144;37.934;2023-04-01T06:04:16;99106.28;;;15.55;33.68
77869;BME280;67231;59.144;37.934;2023-04-01T06:06:44;99106.66;;;15.98;33.13
77869;BME280;67231;59.144;37.934;2023-04-01T06:09:13;99106.22;;;16.60;32.26
77869;BME280;67231;59.144;37.934;2023-04-01T06:20:47;99113.72;;;15.46;32.72
77869;BME280;67231;59.144;37.934;2023-04-01T06:23:34;99112.03;;;15.11;32.38
77869;BME280;67231;59.144;37.934;2023-04-01T06:26:33;99113.41;;;14.61;33.22
77869;BME280;67231;59.144;37.934;2023-04-01T06:29:13;99104.50;;;14.05;34.25
77869;BME280;67231;59.144;37.934;2023-04-01T06:32:10;99110.59;;;13.64;34.71
77869;BME280;67231;59.144;37.934;2023-04-01T06:34:51;99104.84;;;13.89;34.32
77869;BME280;67231;59.144;37.934;2023-04-01T06:37:50;99093.47;;;14.63;33.11
77869;BME280;67231;59.144;37.934;2023-04-01T06:43:17;99098.69;;;16.75;31.15
77869;BME280;67231;59.144;37.934;2023-04-01T06:46:23;99111.63;;;17.24;30.64
77869;BME280;67231;59.144;37.934;2023-04-01T06:52:35;99099.63;;;18.63;29.62
77869;BME280;67231;59.144;37.934;2023-04-01T06:55:41;99103.56;;;19.09;28.95
77869;BME280;67231;59.144;37.934;2023-04-01T06:58:53;99106.63;;;19.24;28.74
77869;BME280;67231;59.144;37.934;2023-04-01T07:01:25;99098.56;;;19.36;28.48
77869;BME280;67231;59.144;37.934;2023-04-01T07:04:00;99106.06;;;19.93;27.35
77869;BME280;67231;59.144;37.934;2023-04-01T07:09:06;99100.00;;;19.51;27.53
77869;BME280;67231;59.144;37.934;2023-04-01T07:12:00;99113.47;;;18.48;28.19
77869;BME280;67231;59.144;37.934;2023-04-01T07:17:43;99105.25;;;18.12;28.22
77869;BME280;67231;59.144;37.934;2023-04-01T07:22:52;99101.28;;;18.64;27.69
77869;BME280;67231;59.144;37.934;2023-04-01T07:25:35;99098.50;;;18.70;27.74
77869;BME280;67231;59.144;37.934;2023-04-01T07:28:21;99109.81;;;18.42;27.66
77869;BME280;67231;59.144;37.934;2023-04-01T07:31:03;99102.91;;;18.65;27.66
77869;BME280;67231;59.144;37.934;2023-04-01T07:38:55;99110.84;;;19.68;26.00
77869;BME280;67231;59.144;37.934;2023-04-01T07:42:13;99106.50;;;20.26;25.53
77869;BME280;67231;59.144;37.934;2023-04-01T07:44:54;99116.06;;;20.45;25.12
77869;BME280;67231;59.144;37.934;2023-04-01T07:47:44;99114.38;;;20.85;25.06
77869;BME280;67231;59.144;37.934;2023-04-01T07:55:45;99118.06;;;21.75;23.48
77869;BME280;67231;59.144;37.934;2023-04-01T08:06:36;99139.34;;;21.72;22.47
77869;BME280;67231;59.144;37.934;2023-04-01T08:20:58;99135.94;;;22.38;20.93
77869;BME280;67231;59.144;37.934;2023-04-01T08:23:44;99137.09;;;21.86;21.08
77869;BME280;67231;59.144;37.934;2023-04-01T08:26:34;99139.34;;;21.55;21.26
77869;BME280;67231;59.144;37.934;2023-04-01T08:29:16;99133.63;;;21.51;21.12
77869;BME280;67231;59.144;37.934;2023-04-01T08:31:55;99125.13;;;21.14;21.10
77869;BME280;67231;59.144;37.934;2023-04-01T08:34:27;99129.97;;;20.54;21.25
77869;BME280;67231;59.144;37.934;2023-04-01T08:37:05;99137.78;;;19.44;22.08
77869;BME280;67231;59.144;37.934;2023-04-01T08:39:44;99140.13;;;17.43;23.49
77869;BME280;67231;59.144;37.934;2023-04-01T08:45:21;99135.66;;;14.39;26.42
77869;BME280;67231;59.144;37.934;2023-04-01T08:56:53;99134.13;;;11.78;28.19
77869;BME280;67231;59.144;37.934;2023-04-01T09:05:36;99134.59;;;11.28;29.10
77869;BME280;67231;59.144;37.934;2023-04-01T09:08:29;99132.72;;;11.14;29.17
77869;BME280;67231;59.144;37.934;2023-04-01T09:14:09;99127.41;;;11.14;30.43
77869;BME280;67231;59.144;37.934;2023-04-01T09:19:33;99129.75;;;10.63;29.79
77869;BME280;67231;59.144;37.934;2023-04-01T09:28:20;99133.53;;;10.20;30.93
77869;BME280;67231;59.144;37.934;2023-04-01T09:37:35;99138.50;;;9.51;31.76
77869;BME280;67231;59.144;37.934;2023-04-01T09:43:02;99141.97;;;9.52;32.30
77869;BME280;67231;59.144;37.934;2023-04-01T09:51:45;99132.19;;;10.33;31.75
77869;BME280;67231;59.144;37.934;2023-04-01T11:10:29;99154.25;;;9.28;33.20
77869;BME280;67231;59.144;37.934;2023-04-01T11:16:42;99155.22;;;9.35;33.89
77869;BME280;67231;59.144;37.934;2023-04-01T11:30:32;99165.50;;;9.22;33.79
77869;BME280;67231;59.144;37.934;2023-04-01T11:33:05;99160.84;;;9.24;33.51
77869;BME280;67231;59.144;37.934;2023-04-01T11:36:11;99171.13;;;9.27;33.98
77869;BME280;67231;59.144;37.934;2023-04-01T11:45:40;99176.91;;;9.72;32.74
77869;BME280;67231;59.144;37.934;2023-04-01T11:48:53;99189.31;;;9.79;32.88
77869;BME280;67231;59.144;37.934;2023-04-01T12:00:05;99186.94;;;10.01;33.08
77869;BME280;67231;59.144;37.934;2023-04-01T12:06:14;99188.28;;;9.97;33.62
77869;BME280;67231;59.144;37.934;2023-04-01T12:15:12;99202.69;;;9.94;33.38
77869;BME280;67231;59.144;37.934;2023-04-01T12:17:54;99208.69;;;9.80;32.86
77869;BME280;67231;59.144;37.934;2023-04-01T12:20:30;99203.88;;;9.83;32.94
77869;BME280;67231;59.144;37.934;2023-04-01T12:23:23;99221.09;;;9.88;32.72
77869;BME280;67231;59.144;37.934;2023-04-01T12:26:35;99217.44;;;9.97;32.67
77869;BME280;67231;59.144;37.934;2023-04-01T12:29:13;99206.31;;;10.01;32.95
77869;BME280;67231;59.144;37.934;2023-04-01T12:31:59;99220.75;;;9.99;32.14
77869;BME280;67231;59.144;37.934;2023-04-01T12:53:36;99232.19;;;9.34;33.39
77869;BME280;67231;59.144;37.934;2023-04-01T12:56:14;99225.03;;;9.26;33.59
77869;BME280;67231;59.144;37.934;2023-04-01T12:59:26;99233.50;;;9.29;33.40
77869;BME280;67231;59.144;37.934;2023-04-01T13:02:18;99231.53;;;9.32;33.37
77869;BME280;67231;59.144;37.934;2023-04-01T13:10:31;99242.41;;;9.20;34.14
77869;BME280;67231;59.144;37.934;2023-04-01T13:13:17;99232.50;;;9.22;33.46
77869;BME280;67231;59.144;37.934;2023-04-01T13:18:58;99247.69;;;9.04;33.77
77869;BME280;67231;59.144;37.934;2023-04-01T13:24:55;99242.03;;;8.99;34.33
77869;BME280;67231;59.144;37.934;2023-04-01T13:27:30;99248.31;;;8.98;34.74
77869;BME280;67231;59.144;37.934;2023-04-01T13:30:24;99248.16;;;8.99;34.03
77869;BME280;67231;59.144;37.934;2023-04-01T13:41:20;99247.63;;;8.96;34.28
77869;BME280;67231;59.144;37.934;2023-04-01T13:43:52;99243.84;;;8.90;34.28
77869;BME280;67231;59.144;37.934;2023-04-01T13:49:36;99245.44;;;8.83;34.21
77869;BME280;67231;59.144;37.934;2023-04-01T13:58:58;99258.66;;;8.74;34.44
77869;BME280;67231;59.144;37.934;2023-04-01T14:20:48;99279.03;;;8.48;34.86
77869;BME280;67231;59.144;37.934;2023-04-01T14:29:00;99288.38;;;8.16;35.45
77869;BME280;67231;59.144;37.934;2023-04-01T14:37:15;99291.53;;;7.93;35.76
77869;BME280;67231;59.144;37.934;2023-04-01T14:40:21;99295.44;;;7.89;36.05
77869;BME280;67231;59.144;37.934;2023-04-01T14:49:13;99306.91;;;7.80;35.43
77869;BME280;67231;59.144;37.934;2023-04-01T14:56:44;99307.00;;;7.70;35.98
77869;BME280;67231;59.144;37.934;2023-04-01T15:07:03;99320.78;;;7.46;36.88
77869;BME280;67231;59.144;37.934;2023-04-01T15:12:26;99326.56;;;7.32;37.43
77869;BME280;67231;59.144;37.934;2023-04-01T15:17:58;99339.81;;;7.22;37.35
77869;BME280;67231;59.144;37.934;2023-04-01T15:23:16;99345.00;;;7.14;36.88
77869;BME280;67231;59.144;37.934;2023-04-01T15:34:07;99356.09;;;6.89;37.16
77869;BME280;67231;59.144;37.934;2023-04-01T15:42:32;99385.06;;;6.62;39.60
77869;BME280;67231;59.144;37.934;2023-04-01T15:45:11;99385.63;;;6.46;40.50
77869;BME280;67231;59.144;37.934;2023-04-01T15:47:58;99393.72;;;6.25;41.54
77869;BME280;67231;59.144;37.934;2023-04-01T15:50:46;99407.84;;;6.04;42.83
77869;BME280;67231;59.144;37.934;2023-04-01T16:01:28;99415.38;;;5.18;47.98
77869;BME280;67231;59.144;37.934;2023-04-01T16:09:33;99419.00;;;4.65;49.25
77869;BME280;67231;59.144;37.934;2023-04-01T16:15:03;99434.50;;;4.47;51.19
77869;BME280;67231;59.144;37.934;2023-04-01T16:17:56;99445.41;;;4.42;52.01
77869;BME280;67231;59.144;37.934;2023-04-01T16:20:57;99442.31;;;4.37;52.52
77869;BME280;67231;59.144;37.934;2023-04-01T16:23:46;99448.66;;;4.34;52.32
77869;BME280;67231;59.144;37.934;2023-04-01T16:26:21;99460.84;;;4.35;52.99
77869;BME280;67231;59.144;37.934;2023-04-01T16:28:54;99459.16;;;4.34;53.36
77869;BME280;67231;59.144;37.934;2023-04-01T16:31:44;99460.63;;;4.27;54.71
77869;BME280;67231;59.144;37.934;2023-04-01T16:36:51;99460.94;;;4.13;55.20
77869;BME280;67231;59.144;37.934;2023-04-01T16:45:36;99462.38;;;4.06;55.33
77869;BME280;67231;59.144;37.934;2023-04-01T16:48:12;99470.25;;;4.06;55.89
77869;BME280;67231;59.144;37.934;2023-04-01T16:53:43;99481.47;;;3.96;56.76
77869;BME280;67231;59.144;37.934;2023-04-01T16:56:17;99481.03;;;3.91;57.36
77869;BME280;67231;59.144;37.934;2023-04-01T16:59:03;99483.06;;;3.88;57.18
77869;BME280;67231;59.144;37.934;2023-04-01T17:04:48;99480.09;;;3.81;57.85
77869;BME280;67231;59.144;37.934;2023-04-01T17:07:45;99494.16;;;3.80;58.27
77869;BME280;67231;59.144;37.934;2023-04-01T17:10:33;99499.66;;;3.77;58.51
77869;BME280;67231;59.144;37.934;2023-04-01T17:28:54;99524.13;;;3.55;59.28
77869;BME280;67231;59.144;37.934;2023-04-01T17:36:59;99539.03;;;3.54;59.85
77869;BME280;67231;59.144;37.934;2023-04-01T17:42:56;99530.91;;;3.46;60.90
77869;BME280;67231;59.144;37.934;2023-04-01T17:45:49;99541.06;;;3.39;60.47
77869;BME280;67231;59.144;37.934;2023-04-01T17:56:29;99541.38;;;3.23;61.60
77869;BME280;67231;59.144;37.934;2023-04-01T17:59:07;99540.91;;;3.18;61.74
77869;BME280;67231;59.144;37.934;2023-04-01T18:01:48;99543.88;;;3.14;62.44
77869;BME280;67231;59.144;37.934;2023-04-01T18:07:12;99534.78;;;3.06;62.29
77869;BME280;67231;59.144;37.934;2023-04-01T18:09:57;99535.66;;;3.07;62.27
77869;BME280;67231;59.144;37.934;2023-04-01T18:18:03;99543.06;;;3.13;62.82
77869;BME280;67231;59.144;37.934;2023-04-01T18:23:24;99543.63;;;3.05;62.92
77869;BME280;67231;59.144;37.934;2023-04-01T18:26:05;99552.66;;;3.01;63.31
77869;BME280;67231;59.144;37.934;2023-04-01T18:32:07;99549.81;;;3.04;63.13
77869;BME280;67231;59.144;37.934;2023-04-01T18:37:24;99553.50;;;3.02;63.94
77869;BME280;67231;59.144;37.934;2023-04-01T18:39:57;99564.00;;;3.02;63.07
77869;BME280;67231;59.144;37.934;2023-04-01T18:42:41;99559.34;;;3.05;63.85
77869;BME280;67231;59.144;37.934;2023-04-01T18:45:33;99565.41;;;3.06;63.88
77869;BME280;67231;59.144;37.934;2023-04-01T18:48:15;99562.09;;;3.04;64.00
77869;BME280;67231;59.144;37.934;2023-04-01T18:50:58;99563.03;;;3.03;64.42
77869;BME280;67231;59.144;37.934;2023-04-01T18:56:03;99562.09;;;3.04;64.26
77869;BME280;67231;59.144;37.934;2023-04-01T18:58:52;99574.84;;;3.08;64.50
77869;BME280;67231;59.144;37.934;2023-04-01T19:10:01;99561.38;;;3.02;65.07
77869;BME280;67231;59.144;37.934;2023-04-01T19:15:22;99560.63;;;3.00;65.46
77869;BME280;67231;59.144;37.934;2023-04-01T19:20:59;99564.00;;;3.02;65.42
77869;BME280;67231;59.144;37.934;2023-04-01T19:29:54;99564.44;;;2.96;66.56
77869;BME280;67231;59.144;37.934;2023-04-01T19:35:19;99566.34;;;2.94;65.77
77869;BME280;67231;59.144;37.934;2023-04-01T19:38:17;99565.50;;;2.93;66.47
77869;BME280;67231;59.144;37.934;2023-04-01T19:40:53;99569.91;;;2.92;66.22
77869;BME280;67231;59.144;37.934;2023-04-01T19:46:46;99574.41;;;2.90;66.67
77869;BME280;67231;59.144;37.934;2023-04-01T19:50:00;99570.47;;;2.85;66.87
77869;BME280;67231;59.144;37.934;2023-04-01T19:52:33;99575.94;;;2.82;67.12
77869;BME280;67231;59.144;37.934;2023-04-01T20:01:09;99585.88;;;2.89;67.16
77869;BME280;67231;59.144;37.934;2023-04-01T20:04:03;99586.81;;;2.88;67.18
77869;BME280;67231;59.144;37.934;2023-04-01T20:06:44;99599.31;;;2.85;67.38
77869;BME280;67231;59.144;37.934;2023-04-01T20:14:50;99597.63;;;2.84;67.77
77869;BME280;67231;59.144;37.934;2023-04-01T20:22:38;99609.69;;;2.86;67.82
77869;BME280;67231;59.144;37.934;2023-04-01T20:25:27;99616.94;;;2.83;68.00
77869;BME280;67231;59.144;37.934;2023-04-01T20:31:16;99607.13;;;2.73;68.14
77869;BME280;67231;59.144;37.934;2023-04-01T20:34:11;99617.22;;;2.67;68.53
77869;BME280;67231;59.144;37.934;2023-04-01T20:37:00;99614.09;;;2.62;68.58
77869;BME280;67231;59.144;37.934;2023-04-01T20:42:34;99617.88;;;2.58;69.28
77869;BME280;67231;59.144;37.934;2023-04-01T20:51:13;99614.75;;;2.52;69.01
77869;BME280;67231;59.144;37.934;2023-04-01T20:53:50;99620.22;;;2.49;69.31
77869;BME280;67231;59.144;37.934;2023-04-01T21:10:23;99624.41;;;2.39;70.27
77869;BME280;67231;59.144;37.934;2023-04-01T21:16:26;99631.78;;;2.34;70.22
77869;BME280;67231;59.144;37.934;2023-04-01T21:26:48;99629.81;;;2.25;70.24
77869;BME280;67231;59.144;37.934;2023-04-01T21:29:51;99636.44;;;2.17;71.15
77869;BME280;67231;59.144;37.934;2023-04-01T21:42:51;99643.53;;;2.28;70.84
77869;BME280;67231;59.144;37.934;2023-04-01T21:47:58;99630.34;;;2.30;70.94
77869;BME280;67231;59.144;37.934;2023-04-01T21:54:01;99636.59;;;2.40;70.92
77869;BME280;67231;59.144;37.934;2023-04-01T22:04:56;99645.16;;;2.42;71.10
77869;BME280;67231;59.144;37.934;2023-04-01T22:07:36;99629.56;;;2.41;70.66
77869;BME280;67231;59.144;37.934;2023-04-01T22:12:43;99638.47;;;2.38;70.77
77869;BME280;67231;59.144;37.934;2023-04-01T22:15:21;99638.47;;;2.38;71.18
77869;BME280;67231;59.144;37.934;2023-04-01T22:20:50;99650.84;;;2.36;71.53
77869;BME280;67231;59.144;37.934;2023-04-01T22:23:46;99635.97;;;2.36;71.01
77869;BME280;67231;59.144;37.934;2023-04-01T22:31:47;99660.91;;;2.29;71.09
77869;BME280;67231;59.144;37.934;2023-04-01T22:37:31;99670.31;;;2.32;71.70
77869;BME280;67231;59.144;37.934;2023-04-01T22:43:04;99666.78;;;2.33;71.26
77869;BME280;67231;59.144;37.934;2023-04-01T22:50:50;99666.31;;;2.39;71.39
77869;BME280;67231;59.144;37.934;2023-04-01T22:56:36;99664.22;;;2.44;70.99
77869;BME280;67231;59.144;37.934;2023-04-01T23:02:08;99678.47;;;2.40;71.87
77869;BME280;67231;59.144;37.934;2023-04-01T23:04:40;99670.72;;;2.39;71.56
77869;BME280;67231;59.144;37.934;2023-04-01T23:13:04;99682.38;;;2.34;71.27
77869;BME280;67231;59.144;37.934;2023-04-01T23:15:32;99674.53;;;2.34;71.81